createdAt,value
2018-02-13T00:00:25.261Z,11.60
2018-02-13T00:02:52.174Z,11.03
2018-02-13T00:05:33.497Z,9.30
2018-02-13T00:08:00.313Z,10.37
2018-02-13T00:10:26.803Z,9.87
2018-02-13T00:12:54.159Z,12.40
2018-02-13T00:15:20.845Z,11.30
2018-02-13T00:17:47.284Z,12.20
2018-02-13T00:20:13.768Z,11.30
2018-02-13T00:22:47.525Z,8.40
2018-02-13T00:25:13.973Z,12.57
2018-02-13T00:27:40.889Z,12.80
2018-02-13T00:30:07.812Z,11.60
2018-02-13T00:32:34.362Z,12.27
2018-02-13T00:35:01.056Z,13.83
2018-02-13T00:37:29.135Z,12.10
2018-02-13T00:39:55.777Z,9.90
2018-02-13T00:42:23.010Z,12.73
2018-02-13T00:44:49.634Z,13.03
2018-02-13T00:47:17.164Z,11.90
2018-02-13T00:49:45.388Z,14.10
2018-02-13T00:52:11.845Z,9.63
2018-02-13T00:54:39.763Z,10.10
2018-02-13T00:57:06.287Z,11.73
2018-02-13T00:59:33.885Z,14.53
2018-02-13T01:02:00.449Z,13.13
2018-02-13T01:04:28.735Z,14.30
2018-02-13T01:06:56.098Z,10.10
2018-02-13T01:09:22.591Z,12.30
2018-02-13T01:11:50.157Z,16.43
2018-02-13T01:14:17.500Z,12.87
2018-02-13T01:16:44.014Z,13.80
2018-02-13T01:19:12.413Z,16.00
2018-02-13T01:21:40.055Z,13.40
2018-02-13T01:24:07.710Z,12.10
2018-02-13T01:26:34.239Z,15.60
2018-02-13T01:29:01.957Z,17.07
2018-02-13T01:31:28.446Z,8.80
2018-02-13T01:33:55.732Z,16.87
2018-02-13T01:36:22.594Z,15.27
2018-02-13T01:38:49.902Z,15.97
2018-02-13T01:41:16.855Z,16.70
2018-02-13T01:43:45.013Z,18.30
2018-02-13T01:46:12.046Z,16.17
2018-02-13T01:48:38.687Z,16.33
2018-02-13T01:51:05.517Z,14.73
2018-02-13T01:53:32.123Z,15.27
2018-02-13T01:55:59.785Z,13.10
2018-02-13T01:58:26.586Z,16.10
2018-02-13T02:00:53.216Z,15.07
2018-02-13T02:03:19.825Z,13.50
2018-02-13T02:05:47.110Z,14.10
2018-02-13T02:08:13.994Z,14.93
2018-02-13T02:10:41.185Z,10.93
2018-02-13T02:13:08.106Z,15.63
2018-02-13T02:15:35.489Z,13.00
2018-02-13T02:18:02.058Z,12.53
2018-02-13T02:20:28.938Z,13.30
2018-02-13T02:22:56.576Z,14.47
2018-02-13T02:25:23.245Z,13.67
2018-02-13T02:27:50.526Z,11.07
2018-02-13T02:30:17.053Z,12.30
2018-02-13T02:32:43.641Z,15.23
2018-02-13T02:35:10.404Z,14.77
2018-02-13T02:37:37.271Z,14.67
2018-02-13T02:40:03.770Z,15.00
2018-02-13T03:19:26.378Z,11.70
2018-02-13T03:21:56.370Z,9.53
2018-02-13T03:47:34.173Z,13.77
2018-02-13T03:52:35.126Z,14.90
2018-02-13T04:10:29.878Z,11.97
2018-02-13T04:43:50.490Z,14.50
2018-02-13T05:12:03.191Z,14.73
2018-02-13T05:14:32.746Z,9.23
2018-02-13T05:37:26.855Z,13.17
2018-02-13T05:42:28.878Z,11.10
2018-02-13T05:47:32.427Z,14.87
2018-02-13T05:52:34.473Z,12.57
2018-02-13T05:55:08.054Z,14.73
2018-02-13T05:57:36.592Z,11.97
2018-02-13T06:00:05.034Z,14.00
2018-02-13T06:05:06.982Z,12.83
2018-02-13T06:32:59.695Z,12.97
2018-02-13T06:53:46.332Z,17.97
2018-02-13T07:57:54.693Z,16.47
2018-02-13T08:08:08.944Z,13.70
2018-02-13T08:26:00.575Z,15.93
2018-02-13T08:46:34.273Z,15.93
2018-02-13T09:04:57.881Z,19.20
2018-02-13T09:36:39.242Z,18.60
2018-02-13T10:13:16.465Z,17.80
2018-02-13T11:10:40.541Z,22.83
2018-02-13T11:15:43.945Z,20.07
2018-02-13T11:28:29.400Z,17.97
2018-02-13T11:30:57.448Z,10.30
2018-02-13T11:33:24.135Z,15.27
2018-02-13T11:35:52.253Z,14.47
2018-02-13T11:38:19.605Z,15.60
2018-02-13T11:40:46.214Z,18.67
2018-02-13T11:43:13.488Z,18.13
2018-02-13T11:45:40.284Z,19.47
2018-02-13T11:48:07.217Z,13.70
2018-02-13T11:50:33.660Z,17.10
2018-02-13T11:53:00.364Z,18.73
2018-02-13T11:55:27.746Z,13.27
2018-02-13T11:57:54.194Z,16.17
2018-02-13T12:00:21.018Z,16.90
2018-02-13T12:02:47.719Z,17.70
2018-02-13T12:05:15.262Z,15.87
2018-02-13T12:07:42.060Z,18.07
2018-02-13T12:10:09.060Z,16.20
2018-02-13T12:12:36.479Z,17.40
2018-02-13T12:15:03.386Z,15.80
2018-02-13T12:17:30.767Z,18.50
2018-02-13T12:19:57.257Z,15.67
2018-02-13T12:22:25.587Z,15.90
2018-02-13T12:24:53.174Z,15.20
2018-02-13T12:27:20.438Z,17.30
2018-02-13T12:29:47.561Z,18.50
2018-02-13T12:32:15.951Z,16.80
2018-02-13T12:34:42.804Z,13.90
2018-02-13T12:37:10.089Z,39.43
2018-02-13T12:39:37.667Z,20.87
2018-02-13T12:42:05.897Z,44.13
2018-02-13T12:44:32.768Z,36.07
2018-02-13T12:46:59.302Z,23.13
2018-02-13T12:49:26.200Z,15.53
2018-02-13T12:51:54.069Z,14.20
2018-02-13T12:54:21.393Z,15.90
2018-02-13T12:56:48.392Z,15.97
2018-02-13T12:59:17.813Z,14.27
2018-02-13T13:01:45.965Z,14.13
2018-02-13T13:04:13.967Z,13.83
2018-02-13T13:06:41.000Z,14.10
2018-02-13T13:09:09.098Z,13.70
2018-02-13T13:11:36.446Z,13.43
2018-02-13T13:14:03.599Z,15.40
2018-02-13T13:16:30.128Z,12.30
2018-02-13T13:18:56.566Z,12.70
2018-02-13T13:21:25.206Z,12.27
2018-02-13T13:23:52.182Z,14.40
2018-02-13T13:26:19.790Z,13.40
2018-02-13T13:28:53.607Z,12.97
2018-02-13T13:31:21.248Z,13.57
2018-02-13T13:33:49.287Z,12.27
2018-02-13T13:36:16.234Z,12.13
2018-02-13T13:38:42.878Z,11.07
2018-02-13T13:41:09.430Z,12.93
2018-02-13T13:43:37.763Z,14.17
2018-02-13T13:46:04.327Z,12.00
2018-02-13T13:48:31.959Z,10.20
2018-02-13T13:50:59.147Z,12.50
2018-02-13T13:53:25.617Z,12.40
2018-02-13T13:55:52.063Z,11.73
2018-02-13T13:58:18.665Z,13.60
2018-02-13T14:00:46.603Z,11.83
2018-02-13T14:03:14.385Z,12.20
2018-02-13T14:05:42.265Z,13.70
2018-02-13T14:08:09.668Z,12.93
2018-02-13T14:10:37.170Z,13.53
2018-02-13T14:13:04.217Z,12.33
2018-02-13T14:15:30.705Z,11.83
2018-02-13T14:17:57.344Z,11.43
2018-02-13T14:20:24.393Z,13.40
2018-02-13T14:22:51.620Z,13.00
2018-02-13T14:25:18.244Z,12.10
2018-02-13T14:27:46.575Z,11.93
2018-02-13T14:30:13.824Z,11.57
2018-02-13T14:32:40.997Z,12.50
2018-02-13T14:35:08.459Z,11.20
2018-02-13T14:37:35.325Z,11.90
2018-02-13T14:40:02.803Z,11.30
2018-02-13T14:42:29.928Z,11.60
2018-02-13T14:44:57.072Z,10.43
2018-02-13T14:47:24.613Z,11.87
2018-02-13T14:49:52.128Z,11.30
2018-02-13T14:52:19.439Z,11.43
2018-02-13T14:54:45.902Z,13.07
2018-02-13T14:57:13.345Z,11.27
2018-02-13T14:59:40.570Z,12.10
2018-02-13T15:02:07.539Z,11.50
2018-02-13T15:04:35.614Z,10.50
2018-02-13T15:07:04.658Z,12.30
2018-02-13T15:09:31.835Z,11.80
2018-02-13T15:11:59.691Z,11.30
2018-02-13T15:14:31.060Z,12.70
2018-02-13T15:17:00.003Z,11.90
2018-02-13T15:19:27.342Z,12.00
2018-02-13T15:21:55.421Z,11.83
2018-02-13T15:24:22.737Z,13.93
2018-02-13T15:26:49.205Z,12.27
2018-02-13T15:29:17.244Z,12.03
2018-02-13T15:31:44.569Z,13.90
2018-02-13T15:34:11.550Z,12.23
2018-02-13T15:36:39.018Z,13.30
2018-02-13T15:39:05.724Z,11.90
2018-02-13T15:41:32.948Z,12.40
2018-02-13T15:43:59.836Z,15.57
2018-02-13T15:46:26.981Z,13.40
2018-02-13T15:48:54.508Z,13.47
2018-02-13T15:51:21.491Z,13.83
2018-02-13T15:53:48.160Z,12.50
2018-02-13T15:56:15.519Z,14.53
2018-02-13T15:58:42.828Z,14.73
2018-02-13T16:01:09.773Z,14.80
2018-02-13T16:03:36.668Z,11.73
2018-02-13T16:06:05.022Z,13.00
2018-02-13T16:08:31.894Z,14.53
2018-02-13T16:10:58.783Z,15.23
2018-02-13T16:13:25.792Z,14.90
2018-02-13T16:15:53.451Z,13.07
2018-02-13T16:18:19.961Z,13.57
2018-02-13T16:20:47.929Z,13.50
2018-02-13T16:23:14.449Z,13.17
2018-02-13T16:25:40.978Z,13.97
2018-02-13T16:28:08.214Z,15.87
2018-02-13T16:30:35.063Z,13.90
2018-02-13T16:33:02.129Z,14.13
2018-02-13T16:35:35.404Z,14.07
2018-02-13T16:38:04.047Z,12.93
2018-02-13T16:40:30.533Z,14.20
2018-02-13T16:42:57.953Z,15.80
2018-02-13T16:45:25.888Z,14.80
2018-02-13T16:47:52.756Z,14.63
2018-02-13T16:50:20.556Z,15.53
2018-02-13T16:52:47.039Z,15.17
2018-02-13T16:55:15.217Z,13.23
2018-02-13T16:57:42.485Z,14.93
2018-02-13T17:00:09.053Z,14.53
2018-02-13T17:02:36.694Z,15.57
2018-02-13T17:05:04.824Z,16.23
2018-02-13T17:07:31.830Z,15.53
2018-02-13T17:09:58.288Z,16.43
2018-02-13T17:12:25.175Z,16.20
2018-02-13T17:14:51.704Z,13.77
2018-02-13T17:17:18.577Z,16.43
2018-02-13T17:19:45.307Z,15.27
2018-02-13T17:22:12.154Z,15.43
2018-02-13T17:24:39.321Z,13.37
2018-02-13T17:27:05.901Z,15.80
2018-02-13T17:29:33.575Z,15.20
2018-02-13T17:32:00.162Z,17.77
2018-02-13T17:34:27.877Z,14.90
2018-02-13T17:36:56.789Z,14.57
2018-02-13T17:39:23.520Z,16.20
2018-02-13T17:41:50.841Z,18.43
2018-02-13T17:44:17.314Z,16.57
2018-02-13T17:46:43.851Z,15.80
2018-02-13T17:49:11.270Z,16.10
2018-02-13T17:51:37.749Z,15.63
2018-02-13T17:54:04.269Z,16.27
2018-02-13T17:56:30.929Z,15.27
2018-02-13T17:58:57.550Z,16.40
2018-02-13T18:01:25.719Z,15.63
2018-02-13T18:03:52.275Z,16.00
2018-02-13T18:06:18.838Z,16.40
2018-02-13T18:08:46.169Z,13.43
2018-02-13T18:11:14.458Z,14.03
2018-02-13T18:13:41.130Z,16.30
2018-02-13T18:16:08.451Z,16.40
2018-02-13T18:18:35.000Z,16.60
2018-02-13T18:21:02.324Z,16.63
2018-02-13T18:23:28.814Z,15.67
2018-02-13T18:25:55.473Z,15.60
2018-02-13T18:28:23.432Z,18.10
2018-02-13T18:30:49.962Z,18.33
2018-02-13T18:33:16.947Z,18.67
2018-02-13T18:35:43.462Z,19.30
2018-02-13T18:38:10.019Z,18.50
2018-02-13T18:40:37.944Z,17.33
2018-02-13T18:43:04.428Z,16.03
2018-02-13T18:45:30.874Z,14.87
2018-02-13T18:47:58.217Z,16.60
2018-02-13T18:50:24.764Z,16.90
2018-02-13T18:55:18.953Z,16.20
2018-02-13T18:57:46.087Z,15.70
2018-02-13T19:00:12.635Z,16.63
2018-02-13T19:02:39.571Z,16.13
2018-02-13T19:05:06.099Z,16.03
2018-02-13T19:07:32.646Z,16.80
2018-02-13T19:09:59.375Z,17.73
2018-02-13T19:12:25.894Z,16.53
2018-02-13T19:14:52.525Z,16.70
2018-02-13T19:17:20.081Z,18.00
2018-02-13T19:19:46.890Z,17.50
2018-02-13T19:22:14.621Z,16.63
2018-02-13T19:24:41.569Z,17.80
2018-02-13T19:27:09.033Z,17.97
2018-02-13T19:29:37.191Z,17.43
2018-02-13T19:32:06.422Z,17.10
2018-02-13T19:34:33.328Z,14.43
2018-02-13T19:37:01.567Z,15.73
2018-02-13T19:39:30.668Z,17.70
2018-02-13T19:41:57.234Z,15.87
2018-02-13T19:44:28.366Z,17.57
2018-02-13T19:46:56.763Z,17.07
2018-02-13T19:49:23.300Z,16.67
2018-02-13T19:51:50.546Z,18.40
2018-02-13T19:54:17.169Z,18.13
2018-02-13T19:56:47.199Z,17.17
2018-02-13T19:59:14.879Z,17.50
2018-02-13T20:01:42.208Z,17.50
2018-02-13T20:04:10.176Z,17.30
2018-02-13T20:06:37.051Z,17.87
2018-02-13T20:09:03.977Z,17.67
2018-02-13T20:11:31.337Z,17.37
2018-02-13T20:13:57.954Z,17.90
2018-02-13T20:16:24.959Z,16.77
2018-02-13T20:18:51.663Z,17.60
2018-02-13T20:21:18.970Z,15.77
2018-02-13T20:23:46.009Z,16.90
2018-02-13T20:26:13.394Z,17.47
2018-02-13T20:28:40.386Z,17.07
2018-02-13T20:31:07.723Z,16.17
2018-02-13T20:33:35.061Z,16.53
2018-02-13T20:36:01.784Z,17.17
2018-02-13T20:38:28.589Z,18.00
2018-02-13T20:40:55.204Z,16.93
2018-02-13T20:43:22.328Z,17.37
2018-02-13T20:45:49.202Z,17.50
2018-02-13T20:48:16.471Z,15.97
2018-02-13T20:50:43.023Z,17.43
2018-02-13T20:53:10.745Z,17.90
2018-02-13T20:58:10.743Z,16.10
2018-02-13T21:00:38.368Z,15.97
2018-02-13T21:03:04.946Z,16.67
2018-02-13T21:05:31.767Z,17.37
2018-02-13T21:07:58.530Z,16.87
2018-02-13T21:10:24.982Z,17.00
2018-02-13T21:12:52.731Z,17.67
2018-02-13T21:15:19.639Z,16.10
2018-02-13T21:17:46.566Z,16.10
2018-02-13T21:20:14.398Z,17.50
2018-02-13T21:22:40.940Z,17.87
2018-02-13T21:25:08.278Z,15.67
2018-02-13T21:27:35.988Z,18.00
2018-02-13T21:30:02.681Z,17.90
2018-02-13T21:32:30.274Z,16.57
2018-02-13T21:34:57.652Z,16.30
2018-02-13T21:37:24.840Z,14.60
2018-02-13T21:39:51.523Z,15.27
2018-02-13T21:42:18.350Z,16.17
2018-02-13T21:44:46.362Z,16.90
2018-02-13T21:47:13.003Z,16.50
2018-02-13T21:49:40.443Z,18.17
2018-02-13T21:52:07.035Z,17.90
2018-02-13T21:54:33.707Z,16.30
2018-02-13T21:57:00.432Z,17.60
2018-02-13T21:59:27.226Z,17.73
2018-02-13T22:01:53.762Z,18.07
2018-02-13T22:04:20.287Z,17.13
2018-02-13T22:06:47.903Z,15.73
2018-02-13T22:09:14.517Z,16.50
2018-02-13T22:11:41.225Z,15.10
2018-02-13T22:14:08.485Z,17.37
2018-02-13T22:16:35.814Z,16.80
2018-02-13T22:19:03.097Z,17.73
2018-02-13T22:21:31.136Z,14.53
2018-02-13T22:23:58.466Z,17.90
2018-02-13T22:26:25.752Z,15.00
2018-02-13T22:28:52.306Z,14.70
2018-02-13T22:31:19.631Z,15.70
2018-02-13T22:33:46.926Z,15.87
2018-02-13T22:36:13.926Z,16.53
2018-02-13T22:38:40.481Z,17.07
2018-02-13T22:41:07.441Z,18.07
2018-02-13T22:43:34.845Z,18.10
2018-02-13T22:46:01.544Z,15.80
2018-02-13T22:48:29.032Z,16.33
2018-02-13T22:50:55.633Z,16.00
2018-02-13T22:53:22.106Z,16.33
2018-02-13T22:55:49.838Z,17.70
2018-02-13T22:58:16.458Z,15.27
2018-02-13T23:00:43.011Z,16.30
2018-02-13T23:03:11.184Z,16.07
2018-02-13T23:05:38.497Z,16.73
2018-02-13T23:08:05.777Z,16.27
2018-02-13T23:10:33.230Z,16.10
2018-02-13T23:12:59.790Z,16.57
2018-02-13T23:15:26.369Z,15.90
2018-02-13T23:17:53.926Z,17.30
2018-02-13T23:20:20.829Z,16.30
2018-02-13T23:22:47.426Z,16.63
2018-02-13T23:25:14.600Z,17.10
2018-02-13T23:27:41.282Z,16.03
2018-02-13T23:30:07.953Z,16.33
2018-02-13T23:32:35.888Z,17.00
2018-02-13T23:35:06.946Z,16.70
2018-02-13T23:37:34.080Z,18.57
2018-02-13T23:40:00.836Z,17.10
2018-02-13T23:42:27.528Z,17.03
2018-02-13T23:44:54.728Z,15.60
2018-02-13T23:47:22.224Z,17.50
2018-02-13T23:49:48.772Z,17.13
2018-02-13T23:52:15.333Z,16.70
2018-02-13T23:54:49.135Z,17.27
2018-02-13T23:57:15.609Z,16.90
2018-02-13T23:59:42.333Z,16.83
